Rechercher aéroport 
image banner adimage banner ad
image banner ad

SVAM - Agropecuaria Gamma

Situé à Portuguesa, Venezuela

ICAO - SVAM, IATA -

Données fournies par Airmate  

Information générale

Coordonnées: N8°45'0" W69°6'60"
Élévation : 344 feet MSL.
 
Voir autres Aéroports à Apure

Données opérationnelles

Accessible au public
Heure actuelle UTC:
Heure actuelle locale:
Météo à : SVGU - Guanare Ntl ( 77 km )
METAR: SVGU 261502Z AUTO 09004KT NCD 27/23 Q1014
Voir NOTAMs / SUP AIP / TFR affectant cet aéroport [VIEW]
Fréquences de communication: [VIEW]

Pistes:

Identifiant RWYQFULongueur (ft)Largeur (ft)SurfaceLDA (ft)
1000
2800

Coordonnées de l'aéroport

Adresse: Portuguesa Venezuela

Vue satellite de SVAM